createdAt,value
2023-02-26T00:00:00.046Z,1010.67
2023-02-26T00:02:00.060Z,1010.66
2023-02-26T00:04:00.069Z,1010.66
2023-02-26T00:06:00.183Z,1010.66
2023-02-26T00:08:00.030Z,1010.66
2023-02-26T00:10:00.209Z,1010.66
2023-02-26T00:12:00.064Z,1010.62
2023-02-26T00:14:00.040Z,1010.62
2023-02-26T00:16:00.043Z,1010.65
2023-02-26T00:18:00.033Z,1010.66
2023-02-26T00:20:00.144Z,1010.67
2023-02-26T00:22:00.031Z,1010.68
2023-02-26T00:24:00.041Z,1010.68
2023-02-26T00:26:00.034Z,1010.73
2023-02-26T00:28:00.039Z,1010.73
2023-02-26T00:30:00.098Z,1010.73
2023-02-26T00:32:00.270Z,1010.76
2023-02-26T00:34:00.084Z,1010.76
2023-02-26T00:36:00.057Z,1010.76
2023-02-26T00:38:00.050Z,1010.87
2023-02-26T00:40:00.232Z,1010.88
2023-02-26T00:42:00.049Z,1010.88
2023-02-26T00:44:00.091Z,1010.90
2023-02-26T00:46:00.109Z,1010.92
2023-02-26T00:48:00.053Z,1010.98
2023-02-26T00:50:00.127Z,1010.98
2023-02-26T00:52:00.126Z,1010.98
2023-02-26T00:54:00.069Z,1010.97
2023-02-26T00:56:00.141Z,1010.96
2023-02-26T00:58:00.067Z,1010.96
2023-02-26T01:00:00.080Z,1010.90
2023-02-26T01:02:00.070Z,1010.90
2023-02-26T01:04:00.218Z,1010.90
2023-02-26T01:06:00.100Z,1010.91
2023-02-26T01:08:00.226Z,1010.87
2023-02-26T01:10:00.108Z,1010.87
2023-02-26T01:12:00.090Z,1010.87
2023-02-26T01:14:00.050Z,1010.92
2023-02-26T01:16:00.226Z,1010.88
2023-02-26T01:18:00.049Z,1010.88
2023-02-26T01:20:00.179Z,1010.88
2023-02-26T01:22:00.059Z,1010.87
2023-02-26T01:24:00.065Z,1010.91
2023-02-26T01:26:00.173Z,1010.89
2023-02-26T01:28:00.095Z,1010.90
2023-02-26T01:30:30.131Z,1010.90
2023-02-26T01:32:30.090Z,1010.90
2023-02-26T01:34:30.072Z,1010.90
2023-02-26T01:36:30.148Z,1010.91
2023-02-26T01:38:30.140Z,1010.91
2023-02-26T01:40:30.156Z,1010.91
2023-02-26T01:42:30.129Z,1010.89
2023-02-26T01:44:30.066Z,1010.92
2023-02-26T01:46:30.508Z,1010.92
2023-02-26T01:48:30.152Z,1010.92
2023-02-26T01:50:30.056Z,1010.93
2023-02-26T01:52:30.100Z,1010.93
2023-02-26T01:54:30.080Z,1010.92
2023-02-26T01:56:30.135Z,1010.96
2023-02-26T01:58:30.189Z,1010.96
2023-02-26T02:00:30.169Z,1010.97
2023-02-26T02:02:30.198Z,1010.95
2023-02-26T02:04:30.149Z,1010.95
2023-02-26T02:06:30.184Z,1010.95
2023-02-26T02:08:30.088Z,1010.95
2023-02-26T02:10:30.088Z,1010.93
2023-02-26T02:12:30.203Z,1010.94
2023-02-26T02:14:30.158Z,1010.93
2023-02-26T02:16:30.123Z,1010.93
2023-02-26T02:18:30.168Z,1010.96
2023-02-26T02:20:30.150Z,1010.92
2023-02-26T02:22:30.155Z,1010.92
2023-02-26T02:26:42.385Z,1010.94
2023-02-26T02:28:30.188Z,1010.93
2023-02-26T02:30:30.154Z,1010.99
2023-02-26T02:32:30.258Z,1010.99
2023-02-26T02:34:30.303Z,1011.05
2023-02-26T02:38:38.461Z,1011.10
2023-02-26T02:40:38.507Z,1011.11
2023-02-26T02:42:38.464Z,1011.15
2023-02-26T02:44:38.463Z,1011.15
2023-02-26T02:46:38.486Z,1011.20
2023-02-26T02:48:38.476Z,1011.21
2023-02-26T02:50:38.476Z,1011.22
2023-02-26T02:52:38.468Z,1011.20
2023-02-26T02:54:38.469Z,1011.20
2023-02-26T02:56:38.469Z,1011.23
2023-02-26T02:58:38.549Z,1011.22
2023-02-26T03:00:38.508Z,1011.22
2023-02-26T03:02:38.511Z,1011.23
2023-02-26T03:04:38.493Z,1011.23
2023-02-26T03:06:38.499Z,1011.27
2023-02-26T03:08:38.502Z,1011.27
2023-02-26T03:10:38.475Z,1011.28
2023-02-26T03:12:38.482Z,1011.28
2023-02-26T03:14:38.480Z,1011.28
2023-02-26T03:16:38.504Z,1011.27
2023-02-26T03:18:38.658Z,1011.29
2023-02-26T03:20:38.495Z,1011.32
2023-02-26T03:22:38.504Z,1011.32
2023-02-26T03:24:38.484Z,1011.38
2023-02-26T03:26:38.538Z,1011.40
2023-02-26T03:28:38.518Z,1011.48
2023-02-26T03:30:38.635Z,1011.48
2023-02-26T03:32:38.538Z,1011.48
2023-02-26T03:34:38.679Z,1011.51
2023-02-26T03:36:38.511Z,1011.49
2023-02-26T03:38:38.517Z,1011.48
2023-02-26T03:40:38.515Z,1011.48
2023-02-26T03:43:08.576Z,1011.52
2023-02-26T03:45:08.486Z,1011.52
2023-02-26T03:47:08.591Z,1011.52
2023-02-26T03:49:08.525Z,1011.55
2023-02-26T03:51:08.697Z,1011.63
2023-02-26T03:53:08.510Z,1011.63
2023-02-26T03:55:08.494Z,1011.63
2023-02-26T03:57:08.509Z,1011.67
2023-02-26T03:59:08.513Z,1011.66
2023-02-26T04:01:08.520Z,1011.74
2023-02-26T04:03:08.642Z,1011.72
2023-02-26T04:05:08.530Z,1011.72
2023-02-26T04:07:08.514Z,1011.72
2023-02-26T04:09:08.507Z,1011.77
2023-02-26T04:11:08.515Z,1011.80
2023-02-26T04:13:08.537Z,1011.80
2023-02-26T04:15:08.514Z,1011.83
2023-02-26T04:17:08.728Z,1011.87
2023-02-26T04:19:08.492Z,1011.90
2023-02-26T04:21:08.504Z,1011.86
2023-02-26T04:23:08.534Z,1011.86
2023-02-26T04:25:08.578Z,1011.92
2023-02-26T04:27:08.522Z,1011.92
2023-02-26T04:29:08.604Z,1011.87
2023-02-26T04:31:09.337Z,1011.88
2023-02-26T04:33:08.527Z,1011.88
2023-02-26T04:35:08.709Z,1011.88
2023-02-26T04:37:08.531Z,1011.95
2023-02-26T04:39:08.524Z,1011.96
2023-02-26T04:41:08.528Z,1011.96
2023-02-26T04:43:08.527Z,1012.01
2023-02-26T04:45:08.515Z,1012.00
2023-02-26T04:47:08.600Z,1012.10
2023-02-26T04:49:08.518Z,1012.10
2023-02-26T04:51:08.661Z,1012.10
2023-02-26T04:53:08.523Z,1012.08
2023-02-26T04:55:08.522Z,1012.14
2023-02-26T04:57:08.512Z,1012.19
2023-02-26T04:59:08.538Z,1012.21
2023-02-26T05:01:08.531Z,1012.21
2023-02-26T05:03:08.546Z,1012.21
2023-02-26T05:05:08.549Z,1012.21
2023-02-26T05:07:08.547Z,1012.29
2023-02-26T05:09:08.552Z,1012.30
2023-02-26T05:11:08.556Z,1012.30
2023-02-26T05:13:08.526Z,1012.32
2023-02-26T05:15:08.551Z,1012.32
2023-02-26T05:17:08.551Z,1012.39
2023-02-26T05:19:08.559Z,1012.39
2023-02-26T05:21:08.555Z,1012.41
2023-02-26T05:23:08.525Z,1012.38
2023-02-26T05:25:08.589Z,1012.38
2023-02-26T05:27:38.535Z,1012.42
2023-02-26T05:29:38.541Z,1012.42
2023-02-26T05:31:38.606Z,1012.43
2023-02-26T05:33:38.539Z,1012.45
2023-02-26T05:35:38.620Z,1012.47
2023-02-26T05:37:38.563Z,1012.47
2023-02-26T05:39:38.600Z,1012.47
2023-02-26T05:41:38.604Z,1012.47
2023-02-26T05:43:38.557Z,1012.50
2023-02-26T05:45:38.549Z,1012.50
2023-02-26T05:47:38.562Z,1012.50
2023-02-26T05:49:38.688Z,1012.52
2023-02-26T05:51:38.608Z,1012.54
2023-02-26T05:53:38.600Z,1012.58
2023-02-26T05:55:38.578Z,1012.58
2023-02-26T05:57:38.560Z,1012.58
2023-02-26T05:59:38.651Z,1012.58
2023-02-26T06:01:38.634Z,1012.54
2023-02-26T06:03:38.546Z,1012.54
2023-02-26T06:05:38.582Z,1012.67
2023-02-26T06:07:38.550Z,1012.67
2023-02-26T06:09:38.552Z,1012.77
2023-02-26T06:11:38.650Z,1012.77
2023-02-26T06:13:38.535Z,1012.84
2023-02-26T06:15:38.568Z,1012.84
2023-02-26T06:17:40.591Z,1012.91
2023-02-26T06:19:38.697Z,1012.90
2023-02-26T06:21:38.973Z,1012.96
2023-02-26T06:23:38.558Z,1012.94
2023-02-26T06:25:38.560Z,1012.94
2023-02-26T06:27:38.553Z,1013.05
2023-02-26T06:29:38.574Z,1013.10
2023-02-26T06:31:38.716Z,1013.14
2023-02-26T06:33:38.569Z,1013.14
2023-02-26T06:35:38.580Z,1013.14
2023-02-26T06:37:38.568Z,1013.14
2023-02-26T06:39:38.554Z,1013.22
2023-02-26T06:41:38.647Z,1013.25
2023-02-26T06:43:38.574Z,1013.25
2023-02-26T06:45:38.600Z,1013.33
2023-02-26T06:47:38.574Z,1013.34
2023-02-26T06:49:38.588Z,1013.34
2023-02-26T06:51:38.594Z,1013.35
2023-02-26T06:53:38.647Z,1013.35
2023-02-26T06:55:38.584Z,1013.39
2023-02-26T06:57:38.583Z,1013.46
2023-02-26T06:59:38.752Z,1013.47
2023-02-26T07:01:38.589Z,1013.51
2023-02-26T07:03:38.620Z,1013.51
2023-02-26T07:05:38.610Z,1013.55
2023-02-26T07:07:38.623Z,1013.55
2023-02-26T07:09:38.660Z,1013.61
2023-02-26T07:12:08.679Z,1013.69
2023-02-26T07:14:08.588Z,1013.70
2023-02-26T07:16:08.586Z,1013.70
2023-02-26T07:18:08.626Z,1013.70
2023-02-26T07:20:08.600Z,1013.67
2023-02-26T07:22:08.660Z,1013.79
2023-02-26T07:24:08.723Z,1013.85
2023-02-26T07:26:08.600Z,1013.85
2023-02-26T07:28:08.654Z,1013.89
2023-02-26T07:30:08.670Z,1013.92
2023-02-26T07:32:08.627Z,1013.95
2023-02-26T07:34:08.630Z,1013.97
2023-02-26T07:36:08.885Z,1013.97
2023-02-26T07:38:08.604Z,1013.97
2023-02-26T07:40:08.595Z,1014.01
2023-02-26T07:42:08.594Z,1014.05
2023-02-26T07:44:08.641Z,1014.05
2023-02-26T07:46:08.640Z,1014.05
2023-02-26T07:48:08.594Z,1014.05
2023-02-26T07:50:08.608Z,1014.07
2023-02-26T07:52:08.601Z,1014.12
2023-02-26T07:54:08.733Z,1014.12
2023-02-26T07:56:08.607Z,1014.14
2023-02-26T07:58:08.620Z,1014.14
2023-02-26T08:00:09.868Z,1014.18
2023-02-26T08:02:08.607Z,1014.21
2023-02-26T08:04:08.650Z,1014.21
2023-02-26T08:06:08.624Z,1014.20
2023-02-26T08:08:08.600Z,1014.21
2023-02-26T08:10:08.692Z,1014.21
2023-02-26T08:12:08.629Z,1014.21
2023-02-26T08:14:08.610Z,1014.21
2023-02-26T08:16:08.683Z,1014.16
2023-02-26T08:18:08.615Z,1014.16
2023-02-26T08:20:08.648Z,1014.27
2023-02-26T08:22:08.611Z,1014.27
2023-02-26T08:24:08.629Z,1014.27
2023-02-26T08:26:08.604Z,1014.30
2023-02-26T08:28:08.711Z,1014.33
2023-02-26T08:30:08.643Z,1014.33
2023-02-26T08:32:08.886Z,1014.33
2023-02-26T08:34:08.649Z,1014.32
2023-02-26T08:36:08.778Z,1014.33
2023-02-26T08:38:08.614Z,1014.33
2023-02-26T08:40:08.705Z,1014.33
2023-02-26T08:42:08.718Z,1014.33
2023-02-26T08:44:08.625Z,1014.32
2023-02-26T08:46:08.686Z,1014.32
2023-02-26T08:48:10.711Z,1014.36
2023-02-26T08:50:08.662Z,1014.36
2023-02-26T08:52:08.683Z,1014.43
2023-02-26T08:54:08.735Z,1014.49
2023-02-26T08:56:08.754Z,1014.57
2023-02-26T08:58:38.736Z,1014.56
2023-02-26T09:00:38.768Z,1014.56
2023-02-26T09:02:38.709Z,1014.56
2023-02-26T09:04:38.670Z,1014.64
2023-02-26T09:06:38.679Z,1014.64
2023-02-26T09:08:38.796Z,1014.69
2023-02-26T09:10:40.932Z,1014.69
2023-02-26T09:12:39.037Z,1014.77
2023-02-26T09:14:38.738Z,1014.81
2023-02-26T09:16:38.954Z,1014.83
2023-02-26T09:18:38.719Z,1014.83
2023-02-26T09:20:38.932Z,1014.83
2023-02-26T09:22:38.801Z,1014.87
2023-02-26T09:24:38.726Z,1014.91
2023-02-26T09:26:38.673Z,1014.95
2023-02-26T09:32:47.051Z,1015.05
2023-02-26T09:34:46.882Z,1015.06
2023-02-26T09:36:46.922Z,1015.06
2023-02-26T09:38:46.817Z,1015.06
2023-02-26T09:40:46.807Z,1015.09
2023-02-26T09:42:46.789Z,1015.07
2023-02-26T09:44:46.762Z,1015.15
2023-02-26T09:46:46.810Z,1015.15
2023-02-26T09:48:46.885Z,1015.17
2023-02-26T09:50:46.889Z,1015.20
2023-02-26T09:52:46.933Z,1015.24
2023-02-26T09:54:46.820Z,1015.23
2023-02-26T09:56:46.866Z,1015.23
2023-02-26T09:58:48.991Z,1015.25
2023-02-26T10:00:46.866Z,1015.25
2023-02-26T10:02:46.786Z,1015.25
2023-02-26T10:04:46.844Z,1015.26
2023-02-26T10:06:46.923Z,1015.26
2023-02-26T10:08:46.837Z,1015.24
2023-02-26T10:10:46.833Z,1015.30
2023-02-26T10:12:46.857Z,1015.32
2023-02-26T10:14:46.881Z,1015.32
2023-02-26T10:16:48.819Z,1015.35
2023-02-26T10:18:46.823Z,1015.38
2023-02-26T10:20:46.949Z,1015.42
2023-02-26T10:22:48.601Z,1015.39
2023-02-26T10:24:46.929Z,1015.39
2023-02-26T10:26:47.859Z,1015.46
2023-02-26T10:28:48.663Z,1015.44
2023-02-26T10:30:46.810Z,1015.40
2023-02-26T10:32:46.973Z,1015.48
2023-02-26T10:34:46.801Z,1015.48
2023-02-26T10:36:46.801Z,1015.44
2023-02-26T10:38:46.799Z,1015.41
2023-02-26T10:40:46.817Z,1015.41
2023-02-26T10:42:46.876Z,1015.47
2023-02-26T10:44:46.807Z,1015.47
2023-02-26T10:46:46.889Z,1015.50
2023-02-26T10:48:46.779Z,1015.45
2023-02-26T10:50:46.840Z,1015.43
2023-02-26T10:52:46.801Z,1015.43
2023-02-26T10:54:46.824Z,1015.44
2023-02-26T10:56:46.868Z,1015.47
2023-02-26T10:58:46.871Z,1015.52
2023-02-26T11:00:46.890Z,1015.47
2023-02-26T11:02:46.916Z,1015.47
2023-02-26T11:04:50.164Z,1015.48
2023-02-26T11:06:46.818Z,1015.53
2023-02-26T11:08:46.860Z,1015.54
2023-02-26T11:10:46.833Z,1015.54
2023-02-26T11:13:16.881Z,1015.54
2023-02-26T11:15:16.902Z,1015.54
2023-02-26T11:17:16.886Z,1015.49
2023-02-26T11:19:17.004Z,1015.59
2023-02-26T11:21:16.829Z,1015.59
2023-02-26T11:23:17.870Z,1015.59
2023-02-26T11:25:16.830Z,1015.59
2023-02-26T11:27:16.908Z,1015.65
2023-02-26T11:29:16.904Z,1015.68
2023-02-26T11:31:16.907Z,1015.66
2023-02-26T11:33:16.980Z,1015.66
2023-02-26T11:35:16.825Z,1015.66
2023-02-26T11:37:16.898Z,1015.66
2023-02-26T11:39:16.882Z,1015.66
2023-02-26T11:41:16.899Z,1015.66
2023-02-26T11:43:16.930Z,1015.66
2023-02-26T11:45:16.920Z,1015.66
2023-02-26T11:47:16.829Z,1015.69
2023-02-26T11:49:16.922Z,1015.69
2023-02-26T11:51:16.968Z,1015.69
2023-02-26T11:53:16.867Z,1015.69
2023-02-26T11:55:16.845Z,1015.69
2023-02-26T11:57:16.913Z,1015.69
2023-02-26T11:59:16.952Z,1015.69
2023-02-26T12:01:16.924Z,1015.69
2023-02-26T12:03:16.954Z,1015.69
2023-02-26T12:05:16.959Z,1015.69
2023-02-26T12:07:17.173Z,1015.69
2023-02-26T12:09:16.969Z,1015.69
2023-02-26T12:11:17.915Z,1015.58
2023-02-26T12:13:16.927Z,1015.58
2023-02-26T12:15:16.930Z,1015.58
2023-02-26T12:17:16.927Z,1015.58
2023-02-26T12:19:16.882Z,1015.58
2023-02-26T12:21:16.981Z,1015.58
2023-02-26T12:23:16.870Z,1015.58
2023-02-26T12:25:16.948Z,1015.58
2023-02-26T12:27:16.919Z,1015.58
2023-02-26T12:29:16.917Z,1015.58
2023-02-26T12:31:16.956Z,1015.58
2023-02-26T12:33:16.999Z,1015.58
2023-02-26T12:35:16.967Z,1015.58
2023-02-26T12:37:17.150Z,1015.51
2023-02-26T12:39:16.887Z,1015.51
2023-02-26T12:41:16.954Z,1015.51
2023-02-26T12:43:16.960Z,1015.51
2023-02-26T12:45:16.970Z,1015.49
2023-02-26T12:47:16.962Z,1015.59
2023-02-26T12:49:16.947Z,1015.59
2023-02-26T12:51:17.009Z,1015.59
2023-02-26T12:53:17.910Z,1015.59
2023-02-26T12:55:16.941Z,1015.72
2023-02-26T12:57:16.902Z,1015.75
2023-02-26T12:59:16.966Z,1015.75
2023-02-26T13:01:16.971Z,1015.72
2023-02-26T13:03:47.007Z,1015.74
2023-02-26T13:05:46.930Z,1015.72
2023-02-26T13:07:46.890Z,1015.73
2023-02-26T13:09:46.926Z,1015.73
2023-02-26T13:11:46.980Z,1015.73
2023-02-26T13:13:46.957Z,1015.73
2023-02-26T13:15:46.981Z,1015.77
2023-02-26T13:17:46.985Z,1015.77
2023-02-26T13:19:46.886Z,1015.76
2023-02-26T13:21:46.899Z,1015.76
2023-02-26T13:23:46.912Z,1015.76
2023-02-26T13:25:46.951Z,1015.79
2023-02-26T13:27:46.971Z,1015.79
2023-02-26T13:29:46.972Z,1015.80
2023-02-26T13:31:46.991Z,1015.86
2023-02-26T13:33:47.006Z,1015.90
2023-02-26T13:35:46.993Z,1015.90
2023-02-26T13:37:46.916Z,1015.90
2023-02-26T13:39:46.957Z,1015.92
2023-02-26T13:41:47.024Z,1015.92
2023-02-26T13:43:46.959Z,1015.92
2023-02-26T13:45:47.048Z,1015.95
2023-02-26T13:47:47.069Z,1015.95
2023-02-26T13:49:47.919Z,1015.95
2023-02-26T13:51:46.984Z,1015.94
2023-02-26T13:53:46.922Z,1015.94
2023-02-26T13:55:46.981Z,1015.94
2023-02-26T13:57:46.980Z,1015.95
2023-02-26T13:59:46.969Z,1016.02
2023-02-26T14:01:47.043Z,1015.99
2023-02-26T14:03:47.052Z,1015.99
2023-02-26T14:05:46.938Z,1015.99
2023-02-26T14:07:46.948Z,1015.99
2023-02-26T14:09:46.956Z,1015.99
2023-02-26T14:11:47.025Z,1015.99
2023-02-26T14:13:46.992Z,1015.95
2023-02-26T14:15:47.116Z,1015.95
2023-02-26T14:17:46.911Z,1016.07
2023-02-26T14:19:47.077Z,1016.09
2023-02-26T14:21:47.152Z,1016.02
2023-02-26T14:23:46.946Z,1016.02
2023-02-26T14:25:46.961Z,1016.02
2023-02-26T14:27:47.078Z,1016.10
2023-02-26T14:29:46.983Z,1016.10
2023-02-26T14:31:47.008Z,1016.05
2023-02-26T14:33:46.932Z,1016.05
2023-02-26T14:35:46.912Z,1016.10
2023-02-26T14:37:46.955Z,1016.21
2023-02-26T14:39:46.988Z,1016.17
2023-02-26T14:41:47.010Z,1016.19
2023-02-26T14:43:47.034Z,1016.19
2023-02-26T14:45:47.041Z,1016.19
2023-02-26T14:47:46.949Z,1016.32
2023-02-26T14:50:16.904Z,1016.37
2023-02-26T14:52:16.949Z,1016.43
2023-02-26T14:54:17.031Z,1016.48
2023-02-26T14:56:16.999Z,1016.48
2023-02-26T14:58:17.006Z,1016.49
2023-02-26T15:00:17.017Z,1016.54
2023-02-26T15:02:18.026Z,1016.48
2023-02-26T15:04:16.947Z,1016.54
2023-02-26T15:06:16.970Z,1016.54
2023-02-26T15:08:16.985Z,1016.58
2023-02-26T15:10:16.996Z,1016.57
2023-02-26T15:12:17.006Z,1016.57
2023-02-26T15:14:17.061Z,1016.52
2023-02-26T15:16:17.058Z,1016.52
2023-02-26T15:18:16.906Z,1016.52
2023-02-26T15:20:16.968Z,1016.55
2023-02-26T15:22:16.975Z,1016.56
2023-02-26T15:24:16.984Z,1016.56
2023-02-26T15:26:17.015Z,1016.56
2023-02-26T15:28:17.014Z,1016.70
2023-02-26T15:30:17.157Z,1016.68
2023-02-26T15:32:17.325Z,1016.67
2023-02-26T15:34:17.013Z,1016.67
2023-02-26T15:36:16.990Z,1016.73
2023-02-26T15:38:17.002Z,1016.78
2023-02-26T15:40:16.995Z,1016.78
2023-02-26T15:42:16.984Z,1016.78
2023-02-26T15:44:17.328Z,1016.78
2023-02-26T15:46:17.068Z,1016.84
2023-02-26T15:48:17.057Z,1016.84
2023-02-26T15:50:16.988Z,1016.88
2023-02-26T15:52:16.996Z,1016.88
2023-02-26T15:54:16.996Z,1016.88
2023-02-26T15:56:17.041Z,1016.90
2023-02-26T15:58:17.126Z,1016.92
2023-02-26T16:00:16.968Z,1016.99
2023-02-26T16:02:17.053Z,1016.99
2023-02-26T16:04:17.085Z,1017.00
2023-02-26T16:06:17.077Z,1017.00
2023-02-26T16:08:17.008Z,1017.02
2023-02-26T16:10:17.068Z,1017.02
2023-02-26T16:12:17.101Z,1017.02
2023-02-26T16:14:17.024Z,1017.11
2023-02-26T16:16:17.217Z,1017.05
2023-02-26T16:18:17.149Z,1017.10
2023-02-26T16:20:16.966Z,1017.10
2023-02-26T16:22:17.044Z,1017.21
2023-02-26T16:24:17.059Z,1017.16
2023-02-26T16:26:17.068Z,1017.25
2023-02-26T16:28:17.124Z,1017.33
2023-02-26T16:30:17.138Z,1017.33
2023-02-26T16:34:39.951Z,1017.28
2023-02-26T16:36:39.965Z,1017.51
2023-02-26T16:38:39.972Z,1017.51
2023-02-26T16:42:39.992Z,1017.55
2023-02-26T16:44:40.030Z,1017.59
2023-02-26T16:46:40.094Z,1017.59
2023-02-26T16:48:40.205Z,1017.71
2023-02-26T16:50:39.962Z,1017.71
2023-02-26T16:52:39.965Z,1017.78
2023-02-26T16:54:39.961Z,1017.78
2023-02-26T16:56:39.959Z,1017.86
2023-02-26T16:58:39.966Z,1017.86
2023-02-26T17:00:40.047Z,1017.82
2023-02-26T17:02:39.931Z,1017.85
2023-02-26T17:04:39.904Z,1017.93
2023-02-26T17:06:40.110Z,1018.03
2023-02-26T17:08:40.000Z,1018.03
2023-02-26T17:10:40.006Z,1018.03
2023-02-26T17:12:40.001Z,1017.99
2023-02-26T17:14:40.002Z,1018.07
2023-02-26T17:16:40.199Z,1018.10
2023-02-26T17:18:39.953Z,1018.10
2023-02-26T17:20:39.981Z,1018.19
2023-02-26T17:22:39.970Z,1018.24
2023-02-26T17:24:40.042Z,1018.24
2023-02-26T17:26:39.982Z,1018.24
2023-02-26T17:28:40.028Z,1018.24
2023-02-26T17:30:40.034Z,1018.35
2023-02-26T17:32:39.983Z,1018.29
2023-02-26T17:34:39.960Z,1018.29
2023-02-26T17:36:40.143Z,1018.29
2023-02-26T17:38:40.011Z,1018.35
2023-02-26T17:40:39.997Z,1018.35
2023-02-26T17:42:39.994Z,1018.35
2023-02-26T17:44:40.029Z,1018.57
2023-02-26T17:46:40.030Z,1018.57
2023-02-26T17:48:40.002Z,1018.63
2023-02-26T17:50:39.955Z,1018.62
2023-02-26T17:52:39.975Z,1018.66
2023-02-26T17:54:40.041Z,1018.66
2023-02-26T17:57:10.023Z,1018.72
2023-02-26T17:59:10.209Z,1018.72
2023-02-26T18:01:10.109Z,1018.78
2023-02-26T18:03:10.063Z,1018.78
2023-02-26T18:05:09.999Z,1018.81
2023-02-26T18:07:09.985Z,1018.81
2023-02-26T18:09:10.023Z,1018.81
2023-02-26T18:11:10.043Z,1018.86
2023-02-26T18:13:10.036Z,1018.78
2023-02-26T18:15:10.080Z,1018.82
2023-02-26T18:17:10.131Z,1018.81
2023-02-26T18:19:09.956Z,1018.81
2023-02-26T18:21:10.023Z,1018.92
2023-02-26T18:23:10.016Z,1018.92
2023-02-26T18:25:10.059Z,1018.92
2023-02-26T18:27:10.019Z,1018.92
2023-02-26T18:29:09.969Z,1018.94
2023-02-26T18:31:10.059Z,1018.94
2023-02-26T18:33:09.950Z,1018.94
2023-02-26T18:35:09.998Z,1019.00
2023-02-26T18:37:10.001Z,1019.00
2023-02-26T18:39:10.037Z,1019.00
2023-02-26T18:41:10.062Z,1018.93
2023-02-26T18:43:10.037Z,1018.93
2023-02-26T18:45:10.066Z,1018.93
2023-02-26T18:47:10.094Z,1018.93
2023-02-26T18:49:10.064Z,1018.93
2023-02-26T18:51:10.028Z,1018.97
2023-02-26T18:53:10.032Z,1018.97
2023-02-26T18:55:10.210Z,1018.97
2023-02-26T18:57:10.120Z,1019.01
2023-02-26T18:59:10.068Z,1019.04
2023-02-26T19:01:10.044Z,1019.04
2023-02-26T19:03:10.103Z,1019.01
2023-02-26T19:05:10.025Z,1019.01
2023-02-26T19:07:10.016Z,1019.01
2023-02-26T19:09:10.071Z,1019.01
2023-02-26T19:11:10.073Z,1019.01
2023-02-26T19:13:10.075Z,1019.03
2023-02-26T19:15:10.063Z,1019.03
2023-02-26T19:17:10.051Z,1019.11
2023-02-26T19:19:11.899Z,1019.11
2023-02-26T19:21:10.024Z,1019.15
2023-02-26T19:23:10.050Z,1019.15
2023-02-26T19:25:10.073Z,1019.13
2023-02-26T19:27:10.086Z,1019.13
2023-02-26T19:29:10.147Z,1019.13
2023-02-26T19:31:10.266Z,1019.13
2023-02-26T19:33:09.988Z,1019.13
2023-02-26T19:35:10.012Z,1019.13
2023-02-26T19:37:10.124Z,1019.21
2023-02-26T19:39:10.046Z,1019.21
2023-02-26T19:41:10.134Z,1019.21
2023-02-26T19:43:40.007Z,1019.21
2023-02-26T19:45:40.146Z,1019.21
2023-02-26T19:47:40.041Z,1019.21
2023-02-26T19:49:40.020Z,1019.21
2023-02-26T19:51:40.067Z,1019.21
2023-02-26T19:53:40.070Z,1019.21
2023-02-26T19:55:40.143Z,1019.44
2023-02-26T19:57:40.102Z,1019.44
2023-02-26T19:59:40.127Z,1019.43
2023-02-26T20:01:40.229Z,1019.43
2023-02-26T20:03:40.067Z,1019.43
2023-02-26T20:05:40.055Z,1019.50
2023-02-26T20:07:40.053Z,1019.57
2023-02-26T20:09:40.083Z,1019.57
2023-02-26T20:11:40.094Z,1019.57
2023-02-26T20:13:40.164Z,1019.57
2023-02-26T20:15:41.031Z,1019.74
2023-02-26T20:17:40.022Z,1019.76
2023-02-26T20:19:40.047Z,1019.76
2023-02-26T20:21:40.086Z,1019.76
2023-02-26T20:23:40.093Z,1019.72
2023-02-26T20:25:40.106Z,1019.72
2023-02-26T20:27:40.129Z,1019.72
2023-02-26T20:29:40.041Z,1019.72
2023-02-26T20:31:40.243Z,1019.84
2023-02-26T20:33:40.033Z,1019.83
2023-02-26T20:35:40.068Z,1019.94
2023-02-26T20:37:40.084Z,1019.94
2023-02-26T20:39:41.024Z,1019.94
2023-02-26T20:41:40.095Z,1019.94
2023-02-26T20:43:40.120Z,1019.92
2023-02-26T20:45:40.078Z,1019.95
2023-02-26T20:47:41.017Z,1019.99
2023-02-26T20:49:40.022Z,1019.99
2023-02-26T20:51:40.097Z,1019.99
2023-02-26T20:53:40.073Z,1019.99
2023-02-26T20:55:40.037Z,1020.09
2023-02-26T20:57:40.444Z,1020.09
2023-02-26T20:59:40.140Z,1020.09
2023-02-26T21:01:40.090Z,1020.09
2023-02-26T21:03:40.054Z,1020.09
2023-02-26T21:05:40.105Z,1020.23
2023-02-26T21:07:40.047Z,1020.23
2023-02-26T21:09:40.115Z,1020.25
2023-02-26T21:11:40.280Z,1020.29
2023-02-26T21:13:41.063Z,1020.29
2023-02-26T21:15:40.057Z,1020.29
2023-02-26T21:17:40.027Z,1020.29
2023-02-26T21:19:40.036Z,1020.31
2023-02-26T21:21:40.035Z,1020.22
2023-02-26T21:23:40.125Z,1020.34
2023-02-26T21:25:40.140Z,1020.34
2023-02-26T21:28:10.043Z,1020.34
2023-02-26T21:30:10.250Z,1020.34
2023-02-26T21:32:10.286Z,1020.34
2023-02-26T21:34:30.214Z,1020.34
2023-02-26T21:36:10.048Z,1020.33
2023-02-26T21:38:10.140Z,1020.33
2023-02-26T21:40:10.132Z,1020.33
2023-02-26T21:42:10.135Z,1020.33
2023-02-26T21:44:10.052Z,1020.33
2023-02-26T21:46:10.094Z,1020.33
2023-02-26T21:48:10.083Z,1020.30
2023-02-26T21:50:10.038Z,1020.30
2023-02-26T21:52:10.220Z,1020.30
2023-02-26T21:54:10.046Z,1020.30
2023-02-26T21:56:10.108Z,1020.36
2023-02-26T21:58:10.190Z,1020.36
2023-02-26T22:00:10.086Z,1020.36
2023-02-26T22:02:10.161Z,1020.42
2023-02-26T22:04:10.159Z,1020.42
2023-02-26T22:06:10.188Z,1020.47
2023-02-26T22:08:10.114Z,1020.47
2023-02-26T22:10:10.155Z,1020.40
2023-02-26T22:12:10.215Z,1020.40
2023-02-26T22:14:10.053Z,1020.33
2023-02-26T22:16:10.067Z,1020.33
2023-02-26T22:18:10.118Z,1020.33
2023-02-26T22:20:10.070Z,1020.33
2023-02-26T22:22:10.042Z,1020.33
2023-02-26T22:24:10.141Z,1020.31
2023-02-26T22:26:10.057Z,1020.31
2023-02-26T22:28:10.255Z,1020.31
2023-02-26T22:30:13.089Z,1020.31
2023-02-26T22:32:10.110Z,1020.26
2023-02-26T22:34:10.057Z,1020.26
2023-02-26T22:36:10.068Z,1020.26
2023-02-26T22:38:10.175Z,1020.30
2023-02-26T22:40:10.172Z,1020.29
2023-02-26T22:42:10.072Z,1020.29
2023-02-26T22:44:10.236Z,1020.29
2023-02-26T22:46:10.097Z,1020.29
2023-02-26T22:48:10.104Z,1020.29
2023-02-26T22:50:10.070Z,1020.29
2023-02-26T22:52:10.087Z,1020.29
2023-02-26T22:54:10.161Z,1020.29
2023-02-26T22:56:10.208Z,1020.29
2023-02-26T22:58:10.084Z,1020.45
2023-02-26T23:00:10.370Z,1020.45
2023-02-26T23:02:10.123Z,1020.46
2023-02-26T23:04:10.252Z,1020.46
2023-02-26T23:06:10.204Z,1020.45
2023-02-26T23:08:10.173Z,1020.45
2023-02-26T23:10:40.136Z,1020.45
2023-02-26T23:12:40.085Z,1020.51
2023-02-26T23:14:40.105Z,1020.51
2023-02-26T23:16:40.066Z,1020.51
2023-02-26T23:18:40.176Z,1020.51
2023-02-26T23:20:40.093Z,1020.51
2023-02-26T23:22:40.151Z,1020.32
2023-02-26T23:24:40.247Z,1020.32
2023-02-26T23:26:40.146Z,1020.32
2023-02-26T23:28:40.164Z,1020.32
2023-02-26T23:30:40.317Z,1020.32
2023-02-26T23:32:40.195Z,1020.32
2023-02-26T23:34:40.068Z,1020.32
2023-02-26T23:36:40.148Z,1020.42
2023-02-26T23:38:40.161Z,1020.43
2023-02-26T23:40:40.313Z,1020.43
2023-02-26T23:42:40.272Z,1020.43
2023-02-26T23:44:40.143Z,1020.49
2023-02-26T23:46:40.183Z,1020.53
2023-02-26T23:48:40.161Z,1020.53
2023-02-26T23:52:35.658Z,1020.53
2023-02-26T23:54:35.660Z,1020.62
2023-02-26T23:56:35.678Z,1020.64
2023-02-26T23:58:35.646Z,1020.63
